Time;durP1;ratioP1;P1;durP2;ratioP2;P2;SDS_P1;SDS_P2;PMS_P1;PMS_P2;Temp;Humidity;BMP_temperature;BMP_pressure;BME280_temperature;BME280_humidity;BME280_pressure;Samples;Min_cycle;Max_cycle;Signal;HPM_P1;HPM_P2
2021/12/13 00:00:37;;;;;;;41.33;11.15;;;;;;;9.66;99.59;102305.22;5037034;28;20135;-73
2021/12/13 00:03:12;;;;;;;23.27;10.48;;;;;;;9.71;99.81;102308.47;5038180;28;20098;-72
2021/12/13 00:05:44;;;;;;;15.43;9.68;;;;;;;9.66;99.15;102299.97;5042073;28;20040;-71
2021/12/13 00:08:14;;;;;;;22.60;10.95;;;;;;;9.58;99.32;102298.66;5015504;28;20072;-75
2021/12/13 00:10:47;;;;;;;17.83;9.25;;;;;;;9.62;99.07;102319.44;5046009;28;20045;-72
2021/12/13 00:13:17;;;;;;;22.30;10.80;;;;;;;9.66;99.14;102307.84;5018366;28;20037;-73
2021/12/13 00:15:49;;;;;;;27.85;10.98;;;;;;;9.63;99.55;102308.00;5040532;28;20060;-73
2021/12/13 00:18:17;;;;;;;;;;;;;;;9.63;99.38;102308.00;5036628;28;20045;-73
2021/12/13 00:20:47;;;;;;;22.08;10.55;;;;;;;9.65;99.76;102308.75;5033079;28;19949;-73
2021/12/13 00:23:17;;;;;;;18.15;9.38;;;;;;;9.60;99.24;102305.53;5033757;28;20076;-72
2021/12/13 00:25:46;;;;;;;18.05;9.38;;;;;;;9.58;99.70;102307.38;5041661;28;20381;-73
2021/12/13 00:28:17;;;;;;;20.70;10.88;;;;;;;9.62;98.91;102311.56;5035092;28;20131;-72
2021/12/13 00:30:57;;;;;;;20.45;10.38;;;;;;;9.62;98.76;102316.81;5035447;28;20052;-72
2021/12/13 00:33:32;;;;;;;24.83;10.48;;;;;;;9.57;99.64;102317.97;5033010;28;20045;-73
2021/12/13 00:36:03;;;;;;;20.13;10.98;;;;;;;9.56;99.20;102320.66;5030423;28;20049;-72
2021/12/13 00:38:31;;;;;;;27.25;9.85;;;;;;;9.56;98.80;102315.41;5034406;28;20149;-73
2021/12/13 00:41:03;;;;;;;20.05;10.05;;;;;;;9.54;98.50;102322.50;5040593;28;20052;-74
2021/12/13 00:43:36;;;;;;;15.18;8.38;;;;;;;9.59;99.04;102326.59;5018645;28;20049;-73
2021/12/13 00:46:07;;;;;;;24.92;10.50;;;;;;;9.55;98.37;102329.47;5034412;28;20457;-72
2021/12/13 00:48:37;;;;;;;15.73;9.15;;;;;;;9.57;98.10;102333.69;5032720;28;20049;-74
2021/12/13 00:51:07;;;;;;;27.60;10.38;;;;;;;9.48;98.68;102333.31;5030665;28;20086;-72
2021/12/13 00:53:37;;;;;;;56.10;11.98;;;;;;;9.47;98.09;102331.59;5034446;28;20164;-72
2021/12/13 00:56:39;;;;;;;23.33;9.75;;;;;;;9.44;98.08;102337.00;5032005;28;20048;-72
2021/12/13 00:59:07;;;;;;;18.88;9.50;;;;;;;9.41;98.13;102347.63;4993054;28;20139;-72
2021/12/13 01:01:37;;;;;;;21.33;10.10;;;;;;;9.33;99.34;102341.91;5017676;28;20040;-74
2021/12/13 01:04:07;;;;;;;21.73;9.50;;;;;;;9.36;99.05;102345.22;5021750;28;20115;-72
2021/12/13 01:07:15;;;;;;;20.80;10.88;;;;;;;9.36;99.18;102339.16;5032283;28;20032;-74
2021/12/13 01:10:46;;;;;;;18.55;9.55;;;;;;;9.35;98.91;102337.44;5047689;28;20380;-72
2021/12/13 01:13:20;;;;;;;17.95;9.10;;;;;;;9.27;99.04;102347.47;5047344;28;20041;-72
2021/12/13 01:15:53;;;;;;;20.35;9.15;;;;;;;9.22;98.61;102337.19;5034895;28;20048;-72
2021/12/13 01:18:28;;;;;;;19.58;10.75;;;;;;;9.22;98.49;102344.22;5046146;28;20041;-72
2021/12/13 01:21:03;;;;;;;27.42;8.93;;;;;;;9.23;98.40;102351.16;5037466;28;20044;-74
2021/12/13 01:23:44;;;;;;;39.42;9.27;;;;;;;9.25;98.40;102352.78;5038828;28;20041;-73
2021/12/13 01:26:35;;;;;;;20.40;9.32;;;;;;;9.22;98.76;102352.91;5038845;28;20045;-74
2021/12/13 01:29:07;;;;;;;28.27;9.50;;;;;;;9.23;98.67;102356.41;5037009;28;20123;-72
2021/12/13 01:31:36;;;;;;;16.93;8.00;;;;;;;9.21;98.91;102355.63;5041451;28;20037;-72
2021/12/13 01:34:04;;;;;;;20.95;9.18;;;;;;;9.14;98.64;102348.97;5036537;28;20134;-72
2021/12/13 01:36:40;;;;;;;20.90;7.95;;;;;;;9.08;98.24;102355.38;5040910;28;20037;-73
2021/12/13 01:39:12;;;;;;;23.08;9.02;;;;;;;9.12;98.95;102358.69;5036805;28;20068;-72
2021/12/13 01:41:43;;;;;;;28.08;8.27;;;;;;;9.13;99.23;102370.88;5040555;28;20052;-74
2021/12/13 01:44:13;;;;;;;19.73;9.45;;;;;;;9.13;98.82;102368.25;5032520;28;20047;-71
2021/12/13 01:46:45;;;;;;;15.80;8.32;;;;;;;9.07;98.46;102369.38;5014868;28;20056;-71
2021/12/13 01:49:12;;;;;;;16.55;8.00;;;;;;;9.03;98.62;102377.47;5032761;28;20052;-75
2021/12/13 01:51:40;;;;;;;17.67;8.93;;;;;;;9.04;99.20;102377.38;5033986;28;20589;-73
2021/12/13 01:54:09;;;;;;;22.60;7.88;;;;;;;8.98;98.61;102385.53;5037373;28;20150;-72
2021/12/13 01:56:43;;;;;;;19.25;8.80;;;;;;;8.96;99.29;102382.13;5039012;28;20036;-73
2021/12/13 01:59:40;;;;;;;23.52;8.57;;;;;;;8.97;99.67;102381.22;5041268;28;20037;-72
2021/12/13 02:02:30;;;;;;;20.13;7.75;;;;;;;9.00;98.43;102388.09;5037178;28;20565;-73
2021/12/13 02:05:04;;;;;;;13.30;7.35;;;;;;;8.95;99.62;102379.59;5024465;28;20063;-72
2021/12/13 02:07:40;;;;;;;17.02;8.93;;;;;;;8.91;99.59;102378.03;5036748;28;20052;-73
2021/12/13 02:10:10;;;;;;;24.75;8.95;;;;;;;8.89;99.69;102382.50;5039437;28;20076;-71
2021/12/13 02:12:41;;;;;;;20.65;8.43;;;;;;;8.85;99.98;102371.31;5042605;28;20049;-72
2021/12/13 02:17:59;;;;;;;17.65;8.43;;;;;;;8.79;100.00;102378.59;5038761;28;20048;-74
2021/12/13 02:20:31;;;;;;;18.25;8.02;;;;;;;8.75;99.99;102374.41;5039387;28;20044;-72
2021/12/13 02:22:59;;;;;;;15.57;6.70;;;;;;;8.72;99.35;102377.19;5035580;28;20515;-72
2021/12/13 02:25:28;;;;;;;15.27;6.97;;;;;;;8.72;99.64;102376.31;5038998;28;20045;-72
2021/12/13 02:27:59;;;;;;;16.17;7.70;;;;;;;8.74;99.88;102370.09;5032265;28;20076;-72
2021/12/13 02:30:31;;;;;;;23.23;6.70;;;;;;;8.74;99.98;102370.09;5040422;28;20119;-75
2021/12/13 02:33:00;;;;;;;17.27;7.65;;;;;;;8.72;99.97;102365.84;5032618;28;20407;-71
2021/12/13 02:35:30;;;;;;;23.77;7.60;;;;;;;8.78;99.36;102366.41;5036442;28;20045;-73
2021/12/13 02:37:59;;;;;;;15.80;6.80;;;;;;;8.74;99.61;102364.84;5037553;28;20045;-73
2021/12/13 02:40:26;;;;;;;18.05;8.57;;;;;;;8.69;98.88;102361.59;5039491;28;20045;-72
2021/12/13 02:42:53;;;;;;;16.20;6.90;;;;;;;8.74;100.00;102371.88;5032489;28;20044;-73
2021/12/13 02:45:26;;;;;;;12.88;6.78;;;;;;;8.78;99.34;102374.28;5039105;28;20483;-72
2021/12/13 02:48:00;;;;;;;22.02;7.82;;;;;;;8.72;99.79;102371.94;5043931;28;20126;-72
2021/12/13 02:50:36;;;;;;;24.50;7.18;;;;;;;8.69;99.45;102372.06;5037121;28;20040;-73
2021/12/13 02:53:05;;;;;;;16.35;8.05;;;;;;;8.72;99.13;102371.94;5032154;28;20053;-72
2021/12/13 02:55:32;;;;;;;23.83;8.52;;;;;;;8.75;99.96;102370.94;5017322;28;20049;-73
2021/12/13 02:58:01;;;;;;;18.15;7.47;;;;;;;8.78;99.84;102382.13;5022965;28;20043;-73
2021/12/13 03:00:31;;;;;;;15.15;7.43;;;;;;;8.75;100.00;102377.03;5033731;28;20044;-73
2021/12/13 03:02:59;;;;;;;12.45;7.45;;;;;;;8.77;99.55;102381.31;5045901;28;20060;-71
2021/12/13 03:05:29;;;;;;;14.70;8.45;;;;;;;8.74;99.54;102377.94;5034693;28;20535;-73
2021/12/13 03:07:58;;;;;;;19.40;8.48;;;;;;;8.70;99.94;102386.88;5041074;28;20146;-72
2021/12/13 03:10:29;;;;;;;14.88;7.50;;;;;;;8.67;99.47;102383.56;5041052;28;20041;-72
2021/12/13 03:12:56;;;;;;;14.30;6.82;;;;;;;8.72;99.78;102379.81;5036056;28;20123;-73
2021/12/13 03:15:26;;;;;;;19.55;7.93;;;;;;;8.73;99.55;102380.66;5017562;28;20060;-72
2021/12/13 03:17:58;;;;;;;16.85;6.90;;;;;;;8.71;99.89;102390.34;5035538;28;20055;-74
2021/12/13 03:20:47;;;;;;;19.63;7.93;;;;;;;8.70;100.00;102394.75;5035406;28;20059;-73
2021/12/13 03:23:31;;;;;;;15.98;7.82;;;;;;;8.74;99.96;102395.44;5038465;28;20060;-73
2021/12/13 03:26:46;;;;;;;14.20;7.40;;;;;;;8.71;99.65;102387.72;5036280;28;20119;-74
2021/12/13 03:29:19;;;;;;;15.18;7.53;;;;;;;8.67;100.00;102388.78;4951324;28;20046;-72
2021/12/13 03:31:49;;;;;;;18.55;7.68;;;;;;;8.62;100.00;102381.13;4949869;28;20055;-72
2021/12/13 03:34:22;;;;;;;22.58;8.45;;;;;;;8.63;100.00;102380.22;4997311;28;20049;-72
2021/12/13 03:36:54;;;;;;;30.85;8.38;;;;;;;8.63;99.64;102387.22;5039973;28;20107;-72
2021/12/13 03:39:21;;;;;;;;;;;;;;;8.63;99.26;102385.47;5034280;28;20119;-72
2021/12/13 03:41:51;;;;;;;13.88;7.05;;;;;;;8.67;100.00;102379.16;5034576;28;19979;-72
2021/12/13 03:44:27;;;;;;;13.65;7.32;;;;;;;8.67;100.00;102368.66;5038981;28;20045;-71
2021/12/13 03:46:57;;;;;;;14.52;7.05;;;;;;;8.67;99.72;102376.53;5045203;28;20049;-74
2021/12/13 03:49:25;;;;;;;14.60;7.43;;;;;;;8.66;99.27;102380.06;5052669;28;20092;-72
2021/12/13 03:51:55;;;;;;;16.00;7.90;;;;;;;8.67;99.27;102381.78;5057921;28;20029;-73
2021/12/13 03:54:22;;;;;;;19.30;8.52;;;;;;;8.68;99.62;102386.09;5057781;28;20037;-73
2021/12/13 03:56:50;;;;;;;15.75;7.90;;;;;;;8.72;99.39;102390.28;5039868;28;20079;-74
2021/12/13 03:59:23;;;;;;;19.75;7.22;;;;;;;8.72;99.86;102392.03;5035708;28;20048;-73
2021/12/13 04:01:52;;;;;;;;;;;;;;;8.69;98.98;102381.72;5014566;28;20091;-71
2021/12/13 04:04:21;;;;;;;14.23;5.93;;;;;;;8.66;98.90;102372.22;5035361;28;19929;-73
2021/12/13 04:06:51;;;;;;;12.75;6.95;;;;;;;8.67;99.78;102384.38;5038318;28;20136;-72
2021/12/13 04:09:19;;;;;;;21.85;8.23;;;;;;;8.67;98.96;102384.38;5032025;28;20048;-73
2021/12/13 04:11:47;;;;;;;16.30;6.85;;;;;;;8.66;99.70;102387.94;5035304;28;20130;-73
2021/12/13 04:14:21;;;;;;;14.27;6.90;;;;;;;8.66;99.42;102382.69;5042416;28;20045;-73
2021/12/13 04:17:04;;;;;;;13.60;6.88;;;;;;;8.73;99.08;102391.13;5033761;28;20040;-73
2021/12/13 04:19:41;;;;;;;14.43;7.15;;;;;;;8.75;98.83;102391.91;5033736;28;20068;-72
2021/12/13 04:22:10;;;;;;;21.77;7.15;;;;;;;8.74;99.39;102391.03;5032308;28;20732;-72
2021/12/13 04:24:39;;;;;;;14.98;6.38;;;;;;;8.79;98.95;102395.16;5039519;28;20036;-72
2021/12/13 04:27:09;;;;;;;17.15;7.03;;;;;;;8.80;98.80;102402.09;5033727;28;20037;-72
2021/12/13 04:29:39;;;;;;;14.65;7.57;;;;;;;8.81;98.25;102393.34;5016794;28;20466;-72
2021/12/13 04:32:15;;;;;;;16.17;6.95;;;;;;;8.80;97.89;102401.28;5032058;28;20163;-73
2021/12/13 04:34:45;;;;;;;10.65;7.03;;;;;;;8.78;98.66;102392.63;5014115;28;20061;-73
2021/12/13 04:37:20;;;;;;;19.20;7.88;;;;;;;8.81;98.03;102390.72;5033286;28;20049;-73
2021/12/13 04:39:53;;;;;;;18.38;5.63;;;;;;;8.89;97.66;102393.00;5033866;28;20045;-72
2021/12/13 04:42:21;;;;;;;13.02;6.13;;;;;;;8.87;98.40;102405.31;5035643;28;20072;-73
2021/12/13 04:44:56;;;;;;;15.27;7.22;;;;;;;8.89;97.85;102395.63;5019022;28;20051;-73
2021/12/13 04:47:28;;;;;;;20.30;7.32;;;;;;;8.90;98.25;102397.31;5028852;28;20049;-72
2021/12/13 04:50:01;;;;;;;11.30;5.88;;;;;;;8.85;98.35;102389.66;5021158;28;20117;-72
2021/12/13 04:52:28;;;;;;;14.40;6.68;;;;;;;8.83;97.75;102390.63;5030440;28;20132;-72
2021/12/13 04:54:56;;;;;;;18.00;7.63;;;;;;;8.81;98.02;102397.72;5037161;28;20058;-73
2021/12/13 04:57:24;;;;;;;12.75;6.35;;;;;;;8.84;97.98;102397.56;5017252;28;20063;-72
2021/12/13 04:59:54;;;;;;;17.92;6.68;;;;;;;8.84;97.36;102394.94;5030149;28;20145;-74
2021/12/13 05:02:22;;;;;;;15.90;7.15;;;;;;;8.83;98.33;102395.88;5033267;28;20037;-73
2021/12/13 05:04:54;;;;;;;17.17;7.57;;;;;;;8.83;98.16;102407.22;5032901;28;20120;-73
2021/12/13 05:07:21;;;;;;;12.30;5.60;;;;;;;8.83;98.08;102403.72;5037662;28;20040;-73
2021/12/13 05:09:49;;;;;;;17.08;6.65;;;;;;;8.78;97.70;102392.63;5039186;28;20056;-72
2021/12/13 05:12:17;;;;;;;12.30;5.93;;;;;;;8.77;98.48;102402.28;5035024;28;20045;-72
2021/12/13 05:14:46;;;;;;;17.00;6.03;;;;;;;8.79;98.06;102404.81;5037888;28;20059;-74
2021/12/13 05:17:15;;;;;;;15.40;6.82;;;;;;;8.79;98.28;102399.56;5031310;28;20136;-72
2021/12/13 05:19:46;;;;;;;14.38;6.13;;;;;;;8.78;97.87;102403.09;5039907;28;20101;-72
2021/12/13 05:22:16;;;;;;;10.23;5.57;;;;;;;8.77;97.39;102401.41;5032160;28;20073;-72
2021/12/13 05:24:46;;;;;;;14.20;7.72;;;;;;;8.74;98.17;102387.59;5034257;28;20041;-72
2021/12/13 05:27:15;;;;;;;21.13;6.90;;;;;;;8.74;98.39;102396.28;5030278;28;20049;-73
2021/12/13 05:29:44;;;;;;;12.93;5.53;;;;;;;8.72;98.27;102398.16;5030747;28;20045;-71
2021/12/13 05:32:13;;;;;;;12.68;6.32;;;;;;;8.74;98.30;102401.53;5028562;28;20056;-73
2021/12/13 05:34:45;;;;;;;12.35;6.18;;;;;;;8.75;97.56;102402.41;5033339;28;20057;-72
2021/12/13 05:37:12;;;;;;;8.98;5.68;;;;;;;8.83;97.90;102401.13;5029525;28;20056;-72
2021/12/13 05:39:55;;;;;;;10.70;5.78;;;;;;;8.81;97.67;102403.81;5032809;28;20049;-71
2021/12/13 05:42:35;;;;;;;12.45;5.82;;;;;;;8.89;97.79;102401.69;5030865;28;20045;-73
2021/12/13 05:45:01;;;;;;;12.52;5.97;;;;;;;8.84;96.93;102400.19;5034742;28;20048;-71
2021/12/13 05:47:28;;;;;;;11.60;6.10;;;;;;;8.83;97.27;102401.97;5035423;28;20045;-73
2021/12/13 05:49:55;;;;;;;14.52;6.72;;;;;;;8.80;96.75;102402.09;5033918;28;20052;-71
2021/12/13 05:52:24;;;;;;;14.23;6.60;;;;;;;8.82;96.69;102404.69;5028563;28;20152;-71
2021/12/13 05:54:57;;;;;;;11.15;5.40;;;;;;;8.81;97.04;102402.97;5033210;28;20071;-72
2021/12/13 05:57:26;;;;;;;12.63;5.53;;;;;;;8.86;97.70;102409.69;5014394;28;20055;-72
2021/12/13 05:59:58;;;;;;;12.15;5.10;;;;;;;8.87;97.09;102413.16;5033799;28;20048;-71
2021/12/13 06:02:58;;;;;;;15.73;7.30;;;;;;;8.85;97.17;102412.38;5030370;28;20041;-71
2021/12/13 06:05:28;;;;;;;11.10;5.43;;;;;;;8.85;96.53;102421.13;5016244;28;20053;-73
2021/12/13 06:07:57;;;;;;;18.80;6.05;;;;;;;8.80;97.28;102415.22;5034884;28;20065;-71
2021/12/13 06:10:29;;;;;;;10.18;5.55;;;;;;;8.78;97.46;102411.81;5033389;28;20578;-70
2021/12/13 06:12:58;;;;;;;11.30;5.97;;;;;;;8.76;96.73;102410.19;5034391;28;20589;-72
2021/12/13 06:15:28;;;;;;;12.13;6.60;;;;;;;8.74;96.58;102412.00;5038239;28;20091;-71
2021/12/13 06:18:11;;;;;;;13.65;6.47;;;;;;;8.71;96.96;102404.31;5045622;28;20037;-72
2021/12/13 06:20:43;;;;;;;20.88;5.93;;;;;;;8.72;97.21;102411.25;5046240;28;20131;-72
2021/12/13 06:23:12;;;;;;;21.20;6.07;;;;;;;8.72;97.14;102413.00;5064195;28;20052;-72
2021/12/13 06:25:43;;;;;;;13.15;6.30;;;;;;;8.69;96.67;102416.63;5047441;28;20045;-72
2021/12/13 06:28:20;;;;;;;14.27;5.55;;;;;;;8.72;97.20;102420.84;5063254;28;20016;-76
2021/12/13 06:30:53;;;;;;;11.90;5.25;;;;;;;8.68;96.47;102425.38;5043797;28;20084;-74
2021/12/13 06:33:21;;;;;;;8.60;4.68;;;;;;;8.74;97.40;102429.50;5034434;28;20072;-70
2021/12/13 06:35:49;;;;;;;12.23;5.38;;;;;;;8.68;97.79;102427.16;5014538;28;20060;-71
2021/12/13 06:38:36;;;;;;;9.10;5.45;;;;;;;8.68;97.80;102422.78;5019690;28;20136;-73
2021/12/13 06:41:08;;;;;;;12.77;5.80;;;;;;;8.67;97.81;102435.94;5033783;28;20049;-73
2021/12/13 06:43:37;;;;;;;13.02;5.30;;;;;;;8.63;97.35;102430.00;5037113;28;20124;-72
2021/12/13 06:46:06;;;;;;;8.63;5.15;;;;;;;8.64;97.32;102430.84;5022818;28;20033;-72
2021/12/13 06:48:36;;;;;;;9.55;5.10;;;;;;;8.64;97.14;102436.94;5033574;28;20055;-73
2021/12/13 06:51:04;;;;;;;11.85;6.20;;;;;;;8.66;96.65;102421.16;5035850;28;20044;-71
2021/12/13 06:53:30;;;;;;;10.35;5.22;;;;;;;8.69;97.80;102432.34;5034806;28;20052;-73
2021/12/13 06:55:58;;;;;;;11.63;4.50;;;;;;;8.74;97.23;102430.34;5035866;28;20037;-72
2021/12/13 06:58:28;;;;;;;10.90;5.68;;;;;;;8.65;97.43;102432.53;5035321;28;20068;-74
2021/12/13 07:00:57;;;;;;;10.02;5.00;;;;;;;8.71;96.45;102427.00;5037596;28;20033;-72
2021/12/13 07:03:32;;;;;;;9.95;5.43;;;;;;;8.70;96.37;102438.44;5021485;28;20041;-73
2021/12/13 07:06:00;;;;;;;19.85;5.32;;;;;;;8.71;96.27;102440.97;5035625;28;20124;-72
2021/12/13 07:08:30;;;;;;;14.35;5.90;;;;;;;8.73;96.64;102438.28;5038782;28;20045;-73
2021/12/13 07:11:00;;;;;;;14.85;4.80;;;;;;;8.73;96.08;102440.91;5040399;28;20052;-74
2021/12/13 07:13:31;;;;;;;11.80;5.32;;;;;;;8.68;96.21;102440.28;5019778;28;20056;-72
2021/12/13 07:16:02;;;;;;;9.50;5.05;;;;;;;8.66;96.68;102445.56;5021107;28;20128;-73
2021/12/13 07:18:40;;;;;;;9.98;4.60;;;;;;;8.67;97.24;102446.44;5020295;28;20049;-70
2021/12/13 07:21:10;;;;;;;9.80;5.05;;;;;;;8.69;96.32;102445.44;5016826;28;20069;-72
2021/12/13 07:23:53;;;;;;;11.95;6.53;;;;;;;8.67;97.07;102444.66;5020638;28;20052;-74
2021/12/13 07:26:30;;;;;;;8.85;4.65;;;;;;;8.68;96.87;102448.13;5019102;28;20103;-71
2021/12/13 07:28:59;;;;;;;10.57;4.45;;;;;;;8.66;96.54;102452.59;5016966;28;20120;-72
2021/12/13 07:31:26;;;;;;;11.77;5.20;;;;;;;8.62;96.93;102449.25;5020855;28;20049;-73
2021/12/13 07:33:53;;;;;;;7.43;4.57;;;;;;;8.65;96.49;102454.38;4998728;28;20041;-71
2021/12/13 07:36:25;;;;;;;22.63;5.45;;;;;;;8.67;96.34;102460.38;5015850;28;20045;-72
2021/12/13 07:38:56;;;;;;;6.50;3.95;;;;;;;8.65;96.36;102462.22;5025153;28;20046;-71
2021/12/13 07:41:24;;;;;;;8.02;4.40;;;;;;;8.69;97.48;102462.94;5018693;28;20041;-72
2021/12/13 07:43:50;;;;;;;16.42;5.28;;;;;;;8.69;97.23;102470.78;5023164;28;20069;-72
2021/12/13 07:46:30;;;;;;;7.35;4.88;;;;;;;8.69;97.34;102476.88;4998313;28;20519;-72
2021/12/13 07:49:01;;;;;;;9.90;5.03;;;;;;;8.68;97.20;102474.31;5017662;28;20060;-72
2021/12/13 07:51:30;;;;;;;9.70;5.22;;;;;;;8.76;96.79;102483.53;5021521;28;20045;-72
2021/12/13 07:54:03;;;;;;;11.63;4.38;;;;;;;8.71;97.30;102480.28;5002218;28;20041;-72
2021/12/13 07:56:42;;;;;;;6.00;3.88;;;;;;;8.76;96.58;102482.69;4997985;28;20084;-72
2021/12/13 07:59:11;;;;;;;7.13;3.85;;;;;;;8.79;97.20;102484.25;5020267;28;20132;-74
2021/12/13 08:01:45;;;;;;;6.95;4.10;;;;;;;8.79;97.18;102493.91;5015395;28;20061;-72
2021/12/13 08:04:15;;;;;;;6.85;3.83;;;;;;;8.80;97.12;102483.34;5013593;28;20065;-74
2021/12/13 08:06:48;;;;;;;8.00;4.22;;;;;;;8.82;97.05;102496.41;5015385;28;20065;-71
2021/12/13 08:09:23;;;;;;;6.95;3.75;;;;;;;8.88;96.41;102493.50;5015203;28;20064;-72
2021/12/13 08:11:52;;;;;;;7.65;4.07;;;;;;;8.84;95.87;102505.00;5016427;28;20511;-73
2021/12/13 08:14:26;;;;;;;7.40;3.78;;;;;;;8.85;96.37;102504.09;5017339;28;20062;-72
2021/12/13 08:16:54;;;;;;;10.05;3.90;;;;;;;8.89;96.30;102513.53;5033481;28;20037;-72
2021/12/13 08:19:23;;;;;;;7.00;3.88;;;;;;;8.85;96.77;102512.81;5036151;28;20037;-72
2021/12/13 08:21:54;;;;;;;7.65;3.53;;;;;;;8.83;97.10;102509.41;5034598;28;20153;-71
2021/12/13 08:24:28;;;;;;;5.50;3.37;;;;;;;8.83;96.60;102505.94;5033418;28;20152;-71
2021/12/13 08:26:59;;;;;;;7.90;4.15;;;;;;;8.91;95.90;102509.06;5034494;28;20044;-71
2021/12/13 08:29:31;;;;;;;7.93;4.22;;;;;;;8.92;96.59;102505.53;5033857;28;20037;-71
2021/12/13 08:32:01;;;;;;;8.35;4.35;;;;;;;8.91;96.15;102504.69;5036564;28;20102;-72
2021/12/13 08:34:32;;;;;;;6.28;3.65;;;;;;;8.91;96.17;102523.03;5033814;28;20056;-70
2021/12/13 08:37:00;;;;;;;6.45;3.97;;;;;;;8.92;96.22;102516.00;5037029;28;20056;-70
2021/12/13 08:39:32;;;;;;;10.75;3.95;;;;;;;8.96;96.39;102502.69;5035420;28;20470;-72
2021/12/13 08:42:02;;;;;;;6.88;3.55;;;;;;;8.98;96.39;102502.66;5036944;28;20063;-71
2021/12/13 08:44:31;;;;;;;8.05;4.05;;;;;;;8.98;95.34;102500.03;5017776;28;20061;-72
2021/12/13 08:47:04;;;;;;;10.95;4.63;;;;;;;8.97;96.21;102503.56;5019299;28;20463;-73
2021/12/13 08:49:37;;;;;;;6.43;3.60;;;;;;;9.01;95.58;102505.13;5017488;28;20049;-72
2021/12/13 08:52:18;;;;;;;12.52;4.57;;;;;;;9.09;95.56;102506.50;5038012;28;20037;-71
2021/12/13 08:54:51;;;;;;;8.60;4.05;;;;;;;9.16;95.02;102507.03;5029366;28;20053;-72
2021/12/13 08:57:43;;;;;;;7.45;3.45;;;;;;;9.18;95.71;102507.84;5034220;28;20049;-72
2021/12/13 09:00:35;;;;;;;9.30;4.57;;;;;;;9.21;95.22;102505.09;5057205;28;20350;-70
2021/12/13 09:03:15;;;;;;;6.30;3.10;;;;;;;9.27;94.64;102512.66;5037616;28;20120;-72
2021/12/13 09:05:53;;;;;;;7.00;3.85;;;;;;;9.30;94.62;102509.91;5032949;28;20057;-72
2021/12/13 09:08:26;;;;;;;7.65;3.33;;;;;;;9.38;93.59;102505.16;5033634;28;20754;-70
2021/12/13 09:10:58;;;;;;;9.35;4.63;;;;;;;9.38;94.66;102518.28;5034901;28;20104;-71
2021/12/13 09:13:36;;;;;;;10.52;4.55;;;;;;;9.39;93.53;102510.31;5034207;28;20037;-71
2021/12/13 09:16:04;;;;;;;13.85;4.82;;;;;;;9.39;93.48;102514.72;5034119;28;20419;-70
2021/12/13 09:18:32;;;;;;;7.82;3.95;;;;;;;9.39;94.69;102512.13;5032624;28;20081;-69
2021/12/13 09:20:59;;;;;;;12.57;4.25;;;;;;;9.47;93.63;102520.47;5033862;28;20051;-71
2021/12/13 09:23:29;;;;;;;7.85;4.35;;;;;;;9.54;92.70;102522.72;5032859;28;20818;-73
2021/12/13 09:26:05;;;;;;;6.10;3.47;;;;;;;9.59;93.80;102516.34;5034271;28;20790;-72
2021/12/13 09:28:39;;;;;;;8.48;4.05;;;;;;;9.65;92.64;102520.47;5037173;28;20067;-72
2021/12/13 09:31:08;;;;;;;8.05;3.55;;;;;;;9.64;93.57;102524.84;5035296;28;20041;-71
2021/12/13 09:33:39;;;;;;;10.13;5.18;;;;;;;9.64;92.67;102530.09;5042507;28;20080;-72
2021/12/13 09:36:08;;;;;;;15.25;4.47;;;;;;;9.56;93.21;102518.25;5034220;28;20047;-71
2021/12/13 09:38:54;;;;;;;12.07;4.82;;;;;;;9.53;93.14;102525.44;5040636;28;20063;-74
2021/12/13 09:41:27;;;;;;;7.65;4.45;;;;;;;9.49;93.39;102529.09;5032773;28;20072;-72
2021/12/13 09:43:59;;;;;;;10.32;5.18;;;;;;;9.49;93.29;102529.09;5021417;28;20103;-72
2021/12/13 09:46:31;;;;;;;11.60;5.13;;;;;;;9.46;93.70;102529.25;5036088;28;20072;-72
2021/12/13 09:49:02;;;;;;;11.15;5.00;;;;;;;9.43;94.14;102535.50;5037707;28;20087;-72
2021/12/13 09:51:32;;;;;;;7.38;3.50;;;;;;;9.41;93.53;102539.09;5039060;28;20072;-73
2021/12/13 09:54:03;;;;;;;7.82;4.07;;;;;;;9.41;94.06;102539.09;5036506;28;20404;-73
2021/12/13 09:56:36;;;;;;;9.30;5.00;;;;;;;9.40;94.19;102542.66;5036717;28;20057;-74
2021/12/13 09:59:12;;;;;;;11.68;4.07;;;;;;;9.45;93.77;102548.53;5038435;28;20128;-74
2021/12/13 10:01:40;;;;;;;7.10;3.92;;;;;;;9.49;93.90;102555.34;5038964;28;20037;-70
2021/12/13 10:04:12;;;;;;;15.00;4.50;;;;;;;9.54;93.99;102558.63;5015806;28;20057;-71
2021/12/13 10:06:44;;;;;;;16.92;4.22;;;;;;;9.56;93.62;102553.22;5020086;28;20088;-73
2021/12/13 10:09:16;;;;;;;14.15;4.13;;;;;;;9.59;93.56;102557.50;5036146;28;20051;-73
2021/12/13 10:11:45;;;;;;;9.85;5.03;;;;;;;9.55;92.90;102552.44;5037522;28;20083;-72
2021/12/13 10:14:16;;;;;;;7.22;4.18;;;;;;;9.53;93.88;102555.13;5034779;28;20533;-71
2021/12/13 10:16:44;;;;;;;8.23;4.03;;;;;;;9.53;93.34;102557.75;5028642;28;20525;-73
2021/12/13 10:19:17;;;;;;;15.13;3.72;;;;;;;9.52;93.16;102555.19;5028199;28;20072;-73
2021/12/13 10:21:46;;;;;;;5.93;3.42;;;;;;;9.55;93.82;102555.06;5026572;28;20045;-74
2021/12/13 10:24:16;;;;;;;8.13;3.67;;;;;;;9.60;93.31;102540.81;5026856;28;20141;-75
2021/12/13 10:26:45;;;;;;;6.45;3.70;;;;;;;9.63;92.66;102549.41;5028229;28;20048;-74
2021/12/13 10:29:14;;;;;;;8.27;4.22;;;;;;;9.65;92.28;102547.53;5009409;28;20042;-72
2021/12/13 10:31:45;;;;;;;13.75;4.18;;;;;;;9.63;92.51;102554.66;5026464;28;20112;-73
2021/12/13 10:34:17;;;;;;;7.55;4.07;;;;;;;9.63;93.08;102538.91;5025916;28;20042;-73
2021/12/13 10:36:47;;;;;;;13.95;4.30;;;;;;;9.64;92.17;102537.97;5025052;28;20041;-73
2021/12/13 10:39:18;;;;;;;15.65;4.03;;;;;;;9.67;92.09;102537.00;5016034;28;20053;-72
2021/12/13 10:41:47;;;;;;;7.10;4.38;;;;;;;9.70;92.38;102535.06;5023625;28;20051;-74
2021/12/13 10:44:17;;;;;;;8.60;4.20;;;;;;;9.65;91.92;102529.16;5029468;28;20050;-72
2021/12/13 10:46:48;;;;;;;15.32;5.22;;;;;;;9.62;92.66;102531.94;5028216;28;20052;-72
2021/12/13 10:49:18;;;;;;;7.28;3.90;;;;;;;9.63;92.88;102519.66;5023784;28;20079;-73
2021/12/13 10:51:51;;;;;;;5.85;3.72;;;;;;;9.63;92.76;102525.78;5028018;28;20041;-72
2021/12/13 10:54:20;;;;;;;7.13;4.05;;;;;;;9.61;91.97;102526.75;5026704;28;20048;-73
2021/12/13 10:56:49;;;;;;;9.50;4.75;;;;;;;9.63;91.45;102523.16;5029428;28;20419;-71
2021/12/13 10:59:21;;;;;;;7.57;4.28;;;;;;;9.64;91.36;102524.84;5026348;28;20153;-72
2021/12/13 11:01:50;;;;;;;7.68;4.70;;;;;;;9.67;92.16;102532.56;5011407;28;20057;-73
2021/12/13 11:04:23;;;;;;;9.20;4.40;;;;;;;9.72;91.87;102532.38;5007208;28;20144;-74
2021/12/13 11:06:50;;;;;;;7.03;4.40;;;;;;;9.81;91.90;102521.44;5028666;28;20051;-73
2021/12/13 11:09:21;;;;;;;9.25;4.30;;;;;;;9.78;91.81;102519.81;5027301;28;20053;-74
2021/12/13 11:11:51;;;;;;;7.53;4.43;;;;;;;9.80;91.01;102520.59;5023892;28;20041;-74
2021/12/13 11:14:20;;;;;;;7.78;4.70;;;;;;;9.81;90.54;102516.19;5032913;28;20057;-73
2021/12/13 11:16:50;;;;;;;5.60;3.53;;;;;;;9.81;91.24;102509.13;5039289;28;20780;-74
2021/12/13 11:19:23;;;;;;;8.05;4.03;;;;;;;9.84;91.18;102510.78;5037150;28;20053;-72
2021/12/13 11:21:53;;;;;;;8.15;3.33;;;;;;;9.89;90.83;102508.78;5040397;28;20045;-74
2021/12/13 11:24:23;;;;;;;13.48;4.07;;;;;;;9.90;90.13;102511.31;5021738;28;20103;-73
2021/12/13 11:26:54;;;;;;;15.82;4.55;;;;;;;9.94;90.65;102512.91;5041487;28;20132;-73
2021/12/13 11:29:21;;;;;;;7.18;4.07;;;;;;;9.88;89.71;102512.34;5049591;28;20032;-73
2021/12/13 11:32:28;;;;;;;15.10;3.95;;;;;;;9.88;89.06;102510.56;5052697;28;20092;-73
2021/12/13 11:35:12;;;;;;;7.68;3.60;;;;;;;9.90;89.37;102508.69;5062596;28;20044;-73
2021/12/13 11:37:56;;;;;;;15.50;5.00;;;;;;;9.87;89.83;102500.13;5050961;28;20057;-73
2021/12/13 11:40:47;;;;;;;6.07;3.28;;;;;;;9.86;90.46;102517.66;5043536;28;20102;-73
2021/12/13 11:43:42;;;;;;;9.93;3.10;;;;;;;9.93;89.58;102505.94;5040420;28;20064;-71
2021/12/13 11:46:56;;;;;;;4.80;3.03;;;;;;;9.89;89.56;102507.00;5050196;28;20065;-75
2021/12/13 11:49:41;;;;;;;6.70;3.42;;;;;;;9.87;89.53;102505.38;4997312;28;20076;-74
2021/12/13 11:52:17;;;;;;;6.38;3.92;;;;;;;9.84;88.20;102513.41;5019604;28;20049;-73
2021/12/13 11:55:17;;;;;;;4.35;2.97;;;;;;;9.87;88.18;102500.13;5033636;28;20068;-73